sensor_id;sensor_type;location;lat;lon;timestamp;pressure;altitude;pressure_sealevel;temperature;humidity
48517;BME280;34310;51.904;4.256;2023-03-02T00:04:32;102660.00;;;15.08;55.87
48517;BME280;34310;51.904;4.256;2023-03-02T00:07:04;102652.06;;;15.07;55.87
48517;BME280;34310;51.904;4.256;2023-03-02T00:09:34;102653.63;;;15.05;55.84
48517;BME280;34310;51.904;4.256;2023-03-02T00:12:02;102655.19;;;15.03;55.71
48517;BME280;34310;51.904;4.256;2023-03-02T00:14:31;102650.13;;;15.04;55.88
48517;BME280;34310;51.904;4.256;2023-03-02T00:16:58;102645.56;;;15.02;55.87
48517;BME280;34310;51.904;4.256;2023-03-02T00:19:25;102651.53;;;15.01;55.79
48517;BME280;34310;51.904;4.256;2023-03-02T00:21:53;102644.53;;;15.00;55.86
48517;BME280;34310;51.904;4.256;2023-03-02T00:24:20;102649.47;;;14.97;55.91
48517;BME280;34310;51.904;4.256;2023-03-02T00:26:47;102644.16;;;14.95;55.81
48517;BME280;34310;51.904;4.256;2023-03-02T00:29:15;102642.47;;;14.96;55.95
48517;BME280;34310;51.904;4.256;2023-03-02T00:31:42;102637.25;;;14.96;55.91
48517;BME280;34310;51.904;4.256;2023-03-02T00:34:09;102624.25;;;14.96;55.85
48517;BME280;34310;51.904;4.256;2023-03-02T00:36:37;102626.06;;;14.97;55.91
48517;BME280;34310;51.904;4.256;2023-03-02T00:39:04;102628.78;;;14.98;55.87
48517;BME280;34310;51.904;4.256;2023-03-02T00:41:32;102622.81;;;14.99;55.90
48517;BME280;34310;51.904;4.256;2023-03-02T00:43:59;102624.63;;;15.00;55.93
48517;BME280;34310;51.904;4.256;2023-03-02T00:46:26;102624.63;;;15.00;56.00
48517;BME280;34310;51.904;4.256;2023-03-02T00:48:54;102629.16;;;15.03;56.11
48517;BME280;34310;51.904;4.256;2023-03-02T00:51:22;102621.34;;;15.03;56.16
48517;BME280;34310;51.904;4.256;2023-03-02T00:53:49;102620.59;;;15.04;56.08
48517;BME280;34310;51.904;4.256;2023-03-02T00:56:16;102617.22;;;15.05;56.10
48517;BME280;34310;51.904;4.256;2023-03-02T00:58:43;102610.31;;;15.05;56.06
48517;BME280;34310;51.904;4.256;2023-03-02T01:01:13;102611.22;;;15.06;55.92
48517;BME280;34310;51.904;4.256;2023-03-02T01:03:42;102613.84;;;15.06;55.93
48517;BME280;34310;51.904;4.256;2023-03-02T01:06:18;102616.56;;;15.07;56.05
48517;BME280;34310;51.904;4.256;2023-03-02T01:08:47;102614.06;;;15.09;56.03
48517;BME280;34310;51.904;4.256;2023-03-02T01:11:16;102617.72;;;15.11;55.88
48517;BME280;34310;51.904;4.256;2023-03-02T01:13:44;102615.91;;;15.10;55.95
48517;BME280;34310;51.904;4.256;2023-03-02T01:16:13;102612.50;;;15.11;55.92
48517;BME280;34310;51.904;4.256;2023-03-02T01:18:41;102618.63;;;15.11;55.93
48517;BME280;34310;51.904;4.256;2023-03-02T01:21:11;102610.81;;;15.11;55.75
48517;BME280;34310;51.904;4.256;2023-03-02T01:23:38;102617.84;;;15.12;55.82
48517;BME280;34310;51.904;4.256;2023-03-02T01:26:06;102612.50;;;15.11;55.77
48517;BME280;34310;51.904;4.256;2023-03-02T01:28:33;102610.81;;;15.11;55.83
48517;BME280;34310;51.904;4.256;2023-03-02T01:31:01;102618.63;;;15.11;55.83
48517;BME280;34310;51.904;4.256;2023-03-02T01:33:31;102607.31;;;15.11;55.75
48517;BME280;34310;51.904;4.256;2023-03-02T01:35:58;102609.91;;;15.11;55.74
48517;BME280;34310;51.904;4.256;2023-03-02T01:38:26;102607.31;;;15.11;55.74
48517;BME280;34310;51.904;4.256;2023-03-02T01:40:54;102604.69;;;15.11;55.83
48517;BME280;34310;51.904;4.256;2023-03-02T01:43:21;102606.41;;;15.10;55.83
48517;BME280;34310;51.904;4.256;2023-03-02T01:45:52;102602.88;;;15.10;55.76
48517;BME280;34310;51.904;4.256;2023-03-02T01:48:34;102596.78;;;15.09;55.78
48517;BME280;34310;51.904;4.256;2023-03-02T01:51:05;102603.69;;;15.09;55.61
48517;BME280;34310;51.904;4.256;2023-03-02T01:53:34;102598.47;;;15.09;55.76
48517;BME280;34310;51.904;4.256;2023-03-02T01:56:03;102593.16;;;15.07;55.65
48517;BME280;34310;51.904;4.256;2023-03-02T01:58:34;102594.06;;;15.08;55.74
48517;BME280;34310;51.904;4.256;2023-03-02T02:01:03;102599.13;;;15.06;55.74
48517;BME280;34310;51.904;4.256;2023-03-02T02:03:31;102591.34;;;15.06;55.70
48517;BME280;34310;51.904;4.256;2023-03-02T02:09:09;102589.63;;;15.07;55.64
48517;BME280;34310;51.904;4.256;2023-03-02T02:11:38;102597.31;;;15.05;55.65
48517;BME280;34310;51.904;4.256;2023-03-02T02:14:05;102589.50;;;15.05;55.65
48517;BME280;34310;51.904;4.256;2023-03-02T02:16:34;102593.81;;;15.05;55.75
48517;BME280;34310;51.904;4.256;2023-03-02T02:19:05;102589.41;;;15.04;55.59
48517;BME280;34310;51.904;4.256;2023-03-02T02:21:37;102590.31;;;15.04;55.70
48517;BME280;34310;51.904;4.256;2023-03-02T02:24:23;102584.94;;;15.03;55.71
48517;BME280;34310;51.904;4.256;2023-03-02T02:26:55;102583.13;;;15.02;55.56
48517;BME280;34310;51.904;4.256;2023-03-02T02:29:34;102580.41;;;15.00;55.54
48517;BME280;34310;51.904;4.256;2023-03-02T02:32:17;102573.38;;;14.99;55.57
48517;BME280;34310;51.904;4.256;2023-03-02T02:34:47;102572.47;;;14.99;55.58
48517;BME280;34310;51.904;4.256;2023-03-02T02:37:25;102575.09;;;14.99;55.45
48517;BME280;34310;51.904;4.256;2023-03-02T02:39:54;102578.59;;;14.99;55.34
48517;BME280;34310;51.904;4.256;2023-03-02T02:42:30;102575.19;;;15.00;55.47
48517;BME280;34310;51.904;4.256;2023-03-02T02:45:03;102565.72;;;15.01;55.50
48517;BME280;34310;51.904;4.256;2023-03-02T02:47:31;102570.00;;;15.00;55.63
48517;BME280;34310;51.904;4.256;2023-03-02T02:49:59;102562.19;;;15.00;55.61
48517;BME280;34310;51.904;4.256;2023-03-02T02:52:27;102574.53;;;15.03;55.47
48517;BME280;34310;51.904;4.256;2023-03-02T02:54:56;102573.63;;;15.02;55.52
48517;BME280;34310;51.904;4.256;2023-03-02T02:57:26;102578.03;;;15.03;55.58
48517;BME280;34310;51.904;4.256;2023-03-02T02:59:58;102571.31;;;15.05;55.73
48517;BME280;34310;51.904;4.256;2023-03-02T03:02:33;102570.41;;;15.05;55.55
48517;BME280;34310;51.904;4.256;2023-03-02T03:05:04;102568.72;;;15.05;55.55
48517;BME280;34310;51.904;4.256;2023-03-02T03:07:32;102572.22;;;15.06;55.59
48517;BME280;34310;51.904;4.256;2023-03-02T03:10:07;102565.44;;;15.08;55.63
48517;BME280;34310;51.904;4.256;2023-03-02T03:12:38;102570.63;;;15.08;55.47
48517;BME280;34310;51.904;4.256;2023-03-02T03:15:07;102569.84;;;15.09;55.39
48517;BME280;34310;51.904;4.256;2023-03-02T03:17:34;102561.25;;;15.10;55.52
48517;BME280;34310;51.904;4.256;2023-03-02T03:20:02;102566.47;;;15.10;55.46
48517;BME280;34310;51.904;4.256;2023-03-02T03:22:39;102562.16;;;15.10;55.32
48517;BME280;34310;51.904;4.256;2023-03-02T03:25:06;102569.19;;;15.11;55.38
48517;BME280;34310;51.904;4.256;2023-03-02T03:27:34;102572.69;;;15.12;55.31
48517;BME280;34310;51.904;4.256;2023-03-02T03:30:01;102563.19;;;15.12;55.30
48517;BME280;34310;51.904;4.256;2023-03-02T03:32:28;102563.97;;;15.11;55.19
48517;BME280;34310;51.904;4.256;2023-03-02T03:34:55;102567.50;;;15.12;55.29
48517;BME280;34310;51.904;4.256;2023-03-02T03:37:23;102566.59;;;15.11;55.20
48517;BME280;34310;51.904;4.256;2023-03-02T03:39:50;102565.69;;;15.11;55.11
48517;BME280;34310;51.904;4.256;2023-03-02T03:42:18;102562.16;;;15.10;55.13
48517;BME280;34310;51.904;4.256;2023-03-02T03:44:46;102558.66;;;15.10;55.19
48517;BME280;34310;51.904;4.256;2023-03-02T03:47:13;102563.97;;;15.11;55.19
48517;BME280;34310;51.904;4.256;2023-03-02T03:49:40;102558.66;;;15.10;55.27
48517;BME280;34310;51.904;4.256;2023-03-02T03:52:08;102556.72;;;15.07;55.09
48517;BME280;34310;51.904;4.256;2023-03-02T03:54:35;102556.72;;;15.07;55.09
48517;BME280;34310;51.904;4.256;2023-03-02T03:57:02;102564.53;;;15.07;55.26
48517;BME280;34310;51.904;4.256;2023-03-02T03:59:29;102560.22;;;15.08;55.40
48517;BME280;34310;51.904;4.256;2023-03-02T04:01:59;102566.22;;;15.07;55.21
48517;BME280;34310;51.904;4.256;2023-03-02T04:04:30;102562.72;;;15.06;55.31
48517;BME280;34310;51.904;4.256;2023-03-02T04:06:58;102573.91;;;15.05;55.23
48517;BME280;34310;51.904;4.256;2023-03-02T04:09:26;102567.00;;;15.06;55.35
48517;BME280;34310;51.904;4.256;2023-03-02T04:11:54;102568.72;;;15.05;55.16
48517;BME280;34310;51.904;4.256;2023-03-02T04:14:22;102572.09;;;15.04;55.27
48517;BME280;34310;51.904;4.256;2023-03-02T04:16:50;102575.44;;;15.03;55.26
48517;BME280;34310;51.904;4.256;2023-03-02T04:19:18;102571.94;;;15.03;55.33
48517;BME280;34310;51.904;4.256;2023-03-02T04:21:48;102571.03;;;15.02;55.15
48517;BME280;34310;51.904;4.256;2023-03-02T04:24:17;102570.13;;;15.02;55.35
48517;BME280;34310;51.904;4.256;2023-03-02T04:26:45;102567.41;;;15.00;55.39
48517;BME280;34310;51.904;4.256;2023-03-02T04:29:13;102576.13;;;15.01;55.20
48517;BME280;34310;51.904;4.256;2023-03-02T04:31:41;102568.19;;;14.99;55.15
48517;BME280;34310;51.904;4.256;2023-03-02T04:34:09;102570.78;;;14.99;55.12
48517;BME280;34310;51.904;4.256;2023-03-02T04:36:38;102564.81;;;15.00;55.06
48517;BME280;34310;51.904;4.256;2023-03-02T04:39:06;102563.88;;;15.00;54.99
48517;BME280;34310;51.904;4.256;2023-03-02T04:41:34;102567.53;;;15.02;55.12
48517;BME280;34310;51.904;4.256;2023-03-02T04:44:01;102566.63;;;15.01;55.13
48517;BME280;34310;51.904;4.256;2023-03-02T04:46:29;102566.63;;;15.01;55.20
48517;BME280;34310;51.904;4.256;2023-03-02T04:48:56;102564.91;;;15.02;55.16
48517;BME280;34310;51.904;4.256;2023-03-02T04:51:29;102564.13;;;15.03;55.25
48517;BME280;34310;51.904;4.256;2023-03-02T04:53:59;102568.59;;;15.04;55.29
48517;BME280;34310;51.904;4.256;2023-03-02T04:56:27;102566.88;;;15.04;55.28
48517;BME280;34310;51.904;4.256;2023-03-02T04:58:54;102565.19;;;15.05;55.28
48517;BME280;34310;51.904;4.256;2023-03-02T05:01:22;102569.63;;;15.06;55.16
48517;BME280;34310;51.904;4.256;2023-03-02T05:03:50;102566.22;;;15.07;55.26
48517;BME280;34310;51.904;4.256;2023-03-02T05:06:19;102561.03;;;15.07;55.17
48517;BME280;34310;51.904;4.256;2023-03-02T05:08:48;102565.44;;;15.08;55.09
48517;BME280;34310;51.904;4.256;2023-03-02T05:11:15;102564.66;;;15.09;55.19
48517;BME280;34310;51.904;4.256;2023-03-02T05:13:54;102566.47;;;15.10;55.12
48517;BME280;34310;51.904;4.256;2023-03-02T05:16:23;102562.16;;;15.10;55.12
48517;BME280;34310;51.904;4.256;2023-03-02T05:18:51;102556.97;;;15.10;55.06
48517;BME280;34310;51.904;4.256;2023-03-02T05:21:18;102561.38;;;15.11;55.00
48517;BME280;34310;51.904;4.256;2023-03-02T05:23:45;102561.38;;;15.11;54.96
48517;BME280;34310;51.904;4.256;2023-03-02T05:26:13;102554.50;;;15.12;54.85
48517;BME280;34310;51.904;4.256;2023-03-02T05:28:41;102555.28;;;15.11;54.90
48517;BME280;34310;51.904;4.256;2023-03-02T05:31:10;102550.06;;;15.11;54.91
48517;BME280;34310;51.904;4.256;2023-03-02T05:33:40;102542.25;;;15.11;54.91
48517;BME280;34310;51.904;4.256;2023-03-02T05:36:07;102553.56;;;15.11;54.96
48517;BME280;34310;51.904;4.256;2023-03-02T05:38:34;102555.16;;;15.09;54.80
48517;BME280;34310;51.904;4.256;2023-03-02T05:41:03;102544.75;;;15.09;54.78
48517;BME280;34310;51.904;4.256;2023-03-02T05:43:30;102555.03;;;15.08;54.77
48517;BME280;34310;51.904;4.256;2023-03-02T05:45:58;102554.25;;;15.09;54.82
48517;BME280;34310;51.904;4.256;2023-03-02T05:48:28;102554.13;;;15.07;54.87
48517;BME280;34310;51.904;4.256;2023-03-02T05:50:56;102554.91;;;15.06;54.79
48517;BME280;34310;51.904;4.256;2023-03-02T05:53:24;102555.81;;;15.07;54.94
48517;BME280;34310;51.904;4.256;2023-03-02T05:55:52;102557.50;;;15.06;54.83
48517;BME280;34310;51.904;4.256;2023-03-02T05:58:20;102557.41;;;15.05;54.91
48517;BME280;34310;51.904;4.256;2023-03-02T06:00:48;102565.19;;;15.05;54.99
48517;BME280;34310;51.904;4.256;2023-03-02T06:03:16;102565.19;;;15.05;54.88
48517;BME280;34310;51.904;4.256;2023-03-02T06:05:43;102570.41;;;15.05;54.92
48517;BME280;34310;51.904;4.256;2023-03-02T06:08:11;102565.97;;;15.04;54.95
48517;BME280;34310;51.904;4.256;2023-03-02T06:10:38;102562.44;;;15.03;54.88
48517;BME280;34310;51.904;4.256;2023-03-02T06:13:05;102556.31;;;15.03;55.11
48517;BME280;34310;51.904;4.256;2023-03-02T06:15:33;102566.72;;;15.03;55.00
48517;BME280;34310;51.904;4.256;2023-03-02T06:18:00;102562.31;;;15.02;54.94
48517;BME280;34310;51.904;4.256;2023-03-02T06:20:27;102565.72;;;15.01;54.99
48517;BME280;34310;51.904;4.256;2023-03-02T06:22:55;102569.09;;;15.00;54.90
48517;BME280;34310;51.904;4.256;2023-03-02T06:25:23;102566.50;;;15.00;54.96
48517;BME280;34310;51.904;4.256;2023-03-02T06:27:51;102571.69;;;15.00;54.87
48517;BME280;34310;51.904;4.256;2023-03-02T06:30:22;102574.28;;;15.00;54.81
48517;BME280;34310;51.904;4.256;2023-03-02T06:32:50;102581.19;;;14.99;54.84
48517;BME280;34310;51.904;4.256;2023-03-02T06:35:17;102582.09;;;15.00;54.82
48517;BME280;34310;51.904;4.256;2023-03-02T06:37:45;102585.59;;;15.00;55.05
48517;BME280;34310;51.904;4.256;2023-03-02T06:40:12;102585.59;;;15.00;55.04
48517;BME280;34310;51.904;4.256;2023-03-02T06:42:41;102597.94;;;15.03;54.93
48517;BME280;34310;51.904;4.256;2023-03-02T06:45:09;102598.09;;;15.04;55.05
48517;BME280;34310;51.904;4.256;2023-03-02T06:47:37;102594.72;;;15.05;55.09
48517;BME280;34310;51.904;4.256;2023-03-02T06:50:06;102592.25;;;15.07;55.03
48517;BME280;34310;51.904;4.256;2023-03-02T06:52:33;102587.28;;;15.10;55.07
48517;BME280;34310;51.904;4.256;2023-03-02T06:55:01;102591.69;;;15.11;55.12
48517;BME280;34310;51.904;4.256;2023-03-02T06:57:29;102585.72;;;15.12;55.19
48517;BME280;34310;51.904;4.256;2023-03-02T07:00:06;102591.94;;;15.14;55.21
48517;BME280;34310;51.904;4.256;2023-03-02T07:02:36;102585.94;;;15.15;55.11
48517;BME280;34310;51.904;4.256;2023-03-02T07:05:05;102594.78;;;15.17;55.07
48517;BME280;34310;51.904;4.256;2023-03-02T07:07:32;102594.91;;;15.18;55.05
48517;BME280;34310;51.904;4.256;2023-03-02T07:10:00;102588.78;;;15.18;54.99
48517;BME280;34310;51.904;4.256;2023-03-02T07:12:27;102594.13;;;15.19;55.11
48517;BME280;34310;51.904;4.256;2023-03-02T07:14:54;102595.94;;;15.21;54.95
48517;BME280;34310;51.904;4.256;2023-03-02T07:17:22;102602.03;;;15.21;55.04
48517;BME280;34310;51.904;4.256;2023-03-02T07:19:49;102605.66;;;15.23;54.94
48517;BME280;34310;51.904;4.256;2023-03-02T07:22:16;102602.16;;;15.23;55.00
48517;BME280;34310;51.904;4.256;2023-03-02T07:24:44;102603.84;;;15.22;54.92
48517;BME280;34310;51.904;4.256;2023-03-02T07:27:11;102603.06;;;15.23;54.99
48517;BME280;34310;51.904;4.256;2023-03-02T07:29:38;102612.56;;;15.23;54.92
48517;BME280;34310;51.904;4.256;2023-03-02T07:32:05;102608.28;;;15.23;54.87
48517;BME280;34310;51.904;4.256;2023-03-02T07:34:33;102611.66;;;15.22;54.85
48517;BME280;34310;51.904;4.256;2023-03-02T07:37:00;102614.25;;;15.22;54.94
48517;BME280;34310;51.904;4.256;2023-03-02T07:39:27;102606.47;;;15.22;54.94
48517;BME280;34310;51.904;4.256;2023-03-02T07:41:58;102607.38;;;15.23;55.01
48517;BME280;34310;51.904;4.256;2023-03-02T07:44:26;102609.06;;;15.22;54.92
48517;BME280;34310;51.904;4.256;2023-03-02T07:46:54;102604.75;;;15.23;55.01
48517;BME280;34310;51.904;4.256;2023-03-02T07:49:21;102602.16;;;15.23;55.05
48517;BME280;34310;51.904;4.256;2023-03-02T07:51:49;102607.38;;;15.23;55.10
48517;BME280;34310;51.904;4.256;2023-03-02T07:54:16;102606.47;;;15.22;55.10
48517;BME280;34310;51.904;4.256;2023-03-02T07:56:43;102607.50;;;15.24;55.04
48517;BME280;34310;51.904;4.256;2023-03-02T07:59:11;102609.19;;;15.24;55.18
48517;BME280;34310;51.904;4.256;2023-03-02T08:01:40;102605.66;;;15.23;55.08
48517;BME280;34310;51.904;4.256;2023-03-02T08:04:07;102600.47;;;15.23;55.07
48517;BME280;34310;51.904;4.256;2023-03-02T08:06:34;102607.38;;;15.23;55.11
48517;BME280;34310;51.904;4.256;2023-03-02T08:09:03;102610.88;;;15.23;55.00
48517;BME280;34310;51.904;4.256;2023-03-02T08:11:31;102605.66;;;15.23;55.04
48517;BME280;34310;51.904;4.256;2023-03-02T08:13:59;102603.06;;;15.23;54.97
48517;BME280;34310;51.904;4.256;2023-03-02T08:16:28;102598.66;;;15.22;54.97
48517;BME280;34310;51.904;4.256;2023-03-02T08:18:56;102600.34;;;15.22;54.85
48517;BME280;34310;51.904;4.256;2023-03-02T08:21:27;102596.84;;;15.21;55.03
48517;BME280;34310;51.904;4.256;2023-03-02T08:23:54;102599.44;;;15.21;54.85
48517;BME280;34310;51.904;4.256;2023-03-02T08:26:22;102594.25;;;15.21;54.98
48517;BME280;34310;51.904;4.256;2023-03-02T08:28:49;102594.13;;;15.19;54.85
48517;BME280;34310;51.904;4.256;2023-03-02T08:31:16;102598.41;;;15.19;54.78
48517;BME280;34310;51.904;4.256;2023-03-02T08:33:44;102596.59;;;15.18;54.77
48517;BME280;34310;51.904;4.256;2023-03-02T08:36:14;102596.47;;;15.16;54.73
48517;BME280;34310;51.904;4.256;2023-03-02T08:38:42;102596.59;;;15.18;54.85
48517;BME280;34310;51.904;4.256;2023-03-02T08:41:13;102583.34;;;15.15;54.79
48517;BME280;34310;51.904;4.256;2023-03-02T08:43:40;102598.97;;;15.15;54.66
48517;BME280;34310;51.904;4.256;2023-03-02T08:46:10;102595.44;;;15.14;54.64
48517;BME280;34310;51.904;4.256;2023-03-02T08:48:38;102598.03;;;15.14;54.72
48517;BME280;34310;51.904;4.256;2023-03-02T08:51:11;102591.94;;;15.14;54.67
48517;BME280;34310;51.904;4.256;2023-03-02T08:53:40;102597.13;;;15.14;54.79
48517;BME280;34310;51.904;4.256;2023-03-02T08:56:26;102592.72;;;15.13;55.02
48517;BME280;34310;51.904;4.256;2023-03-02T08:58:56;102592.72;;;15.13;54.86
48517;BME280;34310;51.904;4.256;2023-03-02T09:01:29;102598.72;;;15.12;54.78
48517;BME280;34310;51.904;4.256;2023-03-02T09:03:57;102593.38;;;15.10;54.73
48517;BME280;34310;51.904;4.256;2023-03-02T09:06:27;102595.19;;;15.11;54.85
48517;BME280;34310;51.904;4.256;2023-03-02T09:08:56;102597.03;;;15.12;54.90
48517;BME280;34310;51.904;4.256;2023-03-02T09:11:24;102592.72;;;15.13;54.89
48517;BME280;34310;51.904;4.256;2023-03-02T09:13:51;102588.44;;;15.13;54.79
48517;BME280;34310;51.904;4.256;2023-03-02T09:16:20;102597.25;;;15.15;54.95
48517;BME280;34310;51.904;4.256;2023-03-02T09:18:47;102585.28;;;15.17;55.09
48517;BME280;34310;51.904;4.256;2023-03-02T09:21:15;102581.09;;;15.19;55.14
48517;BME280;34310;51.904;4.256;2023-03-02T09:23:58;102587.47;;;15.23;55.23
48517;BME280;34310;51.904;4.256;2023-03-02T09:26:25;102583.28;;;15.25;55.25
48517;BME280;34310;51.904;4.256;2023-03-02T09:28:53;102583.41;;;15.27;55.25
48517;BME280;34310;51.904;4.256;2023-03-02T09:31:21;102579.09;;;15.27;55.20
48517;BME280;34310;51.904;4.256;2023-03-02T09:33:48;102585.22;;;15.28;55.21
48517;BME280;34310;51.904;4.256;2023-03-02T09:36:23;102578.31;;;15.28;55.33
48517;BME280;34310;51.904;4.256;2023-03-02T09:38:52;102574.94;;;15.29;55.29
48517;BME280;34310;51.904;4.256;2023-03-02T09:46:55;102566.59;;;15.33;55.39
48517;BME280;34310;51.904;4.256;2023-03-02T09:55:00;102565.25;;;15.38;55.46
48517;BME280;34310;51.904;4.256;2023-03-02T09:57:35;102565.25;;;15.38;55.39
48517;BME280;34310;51.904;4.256;2023-03-02T10:00:15;102566.19;;;15.39;55.41
48517;BME280;34310;51.904;4.256;2023-03-02T10:02:55;102563.69;;;15.40;55.50
48517;BME280;34310;51.904;4.256;2023-03-02T10:05:46;102567.31;;;15.42;55.19
48517;BME280;34310;51.904;4.256;2023-03-02T10:08:40;102571.75;;;15.43;55.50
48517;BME280;34310;51.904;4.256;2023-03-02T10:11:28;102564.94;;;15.45;55.50
48517;BME280;34310;51.904;4.256;2023-03-02T10:14:23;102563.25;;;15.46;55.45
48517;BME280;34310;51.904;4.256;2023-03-02T10:17:32;102565.97;;;15.47;55.69
48517;BME280;34310;51.904;4.256;2023-03-02T10:20:08;102558.28;;;15.49;55.58
48517;BME280;34310;51.904;4.256;2023-03-02T10:22:53;102570.63;;;15.52;55.52
48517;BME280;34310;51.904;4.256;2023-03-02T10:25:51;102563.72;;;15.52;55.51
48517;BME280;34310;51.904;4.256;2023-03-02T10:28:22;102565.53;;;15.53;55.62
48517;BME280;34310;51.904;4.256;2023-03-02T10:31:23;102564.88;;;15.56;55.54
48517;BME280;34310;51.904;4.256;2023-03-02T10:33:52;102562.38;;;15.57;55.57
48517;BME280;34310;51.904;4.256;2023-03-02T10:36:25;102553.81;;;15.58;55.48
48517;BME280;34310;51.904;4.256;2023-03-02T10:38:54;102562.53;;;15.59;55.51
48517;BME280;34310;51.904;4.256;2023-03-02T10:41:36;102555.75;;;15.61;55.47
48517;BME280;34310;51.904;4.256;2023-03-02T10:44:29;102556.03;;;15.64;55.40
48517;BME280;34310;51.904;4.256;2023-03-02T10:46:57;102548.22;;;15.64;55.56
48517;BME280;34310;51.904;4.256;2023-03-02T10:49:28;102544.81;;;15.65;55.36
48517;BME280;34310;51.904;4.256;2023-03-02T10:52:12;102555.34;;;15.66;55.45
48517;BME280;34310;51.904;4.256;2023-03-02T10:54:40;102551.06;;;15.67;55.27
48517;BME280;34310;51.904;4.256;2023-03-02T10:59:51;102560.00;;;15.70;55.45
48517;BME280;34310;51.904;4.256;2023-03-02T11:02:24;102549.59;;;15.70;55.35
48517;BME280;34310;51.904;4.256;2023-03-02T11:04:58;102551.41;;;15.71;55.37
48517;BME280;34310;51.904;4.256;2023-03-02T11:07:38;102552.41;;;15.73;55.38
48517;BME280;34310;51.904;4.256;2023-03-02T11:10:17;102544.59;;;15.73;55.31
48517;BME280;34310;51.904;4.256;2023-03-02T11:12:47;102547.34;;;15.75;55.19
48517;BME280;34310;51.904;4.256;2023-03-02T11:15:33;102550.97;;;15.77;55.30
48517;BME280;34310;51.904;4.256;2023-03-02T11:18:07;102545.75;;;15.77;55.33
48517;BME280;34310;51.904;4.256;2023-03-02T11:20:42;102551.06;;;15.78;55.25
48517;BME280;34310;51.904;4.256;2023-03-02T11:25:53;102551.19;;;15.80;55.16
48517;BME280;34310;51.904;4.256;2023-03-02T11:28:49;102548.69;;;15.82;55.22
48517;BME280;34310;51.904;4.256;2023-03-02T11:31:34;102544.41;;;15.82;55.14
48517;BME280;34310;51.904;4.256;2023-03-02T11:34:51;102541.91;;;15.84;55.07
48517;BME280;34310;51.904;4.256;2023-03-02T11:39:24;102545.53;;;15.86;55.13
48517;BME280;34310;51.904;4.256;2023-03-02T11:41:52;102544.75;;;15.87;55.10
48517;BME280;34310;51.904;4.256;2023-03-02T11:44:20;102546.56;;;15.88;55.19
48517;BME280;34310;51.904;4.256;2023-03-02T11:46:58;102544.88;;;15.88;55.06
48517;BME280;34310;51.904;4.256;2023-03-02T11:49:38;102548.53;;;15.90;55.15
48517;BME280;34310;51.904;4.256;2023-03-02T11:52:29;102539.91;;;15.91;55.22
48517;BME280;34310;51.904;4.256;2023-03-02T11:57:36;102536.53;;;15.92;55.08
48517;BME280;34310;51.904;4.256;2023-03-02T12:00:34;102547.97;;;15.94;55.16
48517;BME280;34310;51.904;4.256;2023-03-02T12:03:05;102541.97;;;15.95;55.03
48517;BME280;34310;51.904;4.256;2023-03-02T12:05:36;102547.28;;;15.97;54.98
48517;BME280;34310;51.904;4.256;2023-03-02T12:11:04;102549.22;;;15.99;54.99
48517;BME280;34310;51.904;4.256;2023-03-02T12:13:40;102539.69;;;16.00;54.95
48517;BME280;34310;51.904;4.256;2023-03-02T12:16:34;102530.19;;;16.00;55.16
48517;BME280;34310;51.904;4.256;2023-03-02T12:19:26;102536.41;;;16.02;54.97
48517;BME280;34310;51.904;4.256;2023-03-02T12:22:02;102532.13;;;16.03;55.04
48517;BME280;34310;51.904;4.256;2023-03-02T12:24:34;102522.59;;;16.03;54.90
48517;BME280;34310;51.904;4.256;2023-03-02T12:27:23;102526.22;;;16.05;54.97
48517;BME280;34310;51.904;4.256;2023-03-02T12:35:30;102523.84;;;16.08;54.96
48517;BME280;34310;51.904;4.256;2023-03-02T12:41:24;102508.22;;;16.08;54.97
48517;BME280;34310;51.904;4.256;2023-03-02T12:46:46;102511.16;;;16.13;54.92
48517;BME280;34310;51.904;4.256;2023-03-02T12:49:40;102502.53;;;16.14;54.89
48517;BME280;34310;51.904;4.256;2023-03-02T12:52:25;102502.66;;;16.16;54.79
48517;BME280;34310;51.904;4.256;2023-03-02T12:55:06;102502.66;;;16.16;54.77
48517;BME280;34310;51.904;4.256;2023-03-02T12:57:51;102500.16;;;16.17;54.85
48517;BME280;34310;51.904;4.256;2023-03-02T13:00:28;102503.69;;;16.18;54.67
48517;BME280;34310;51.904;4.256;2023-03-02T13:02:58;102495.22;;;16.20;54.70
48517;BME280;34310;51.904;4.256;2023-03-02T13:05:31;102495.22;;;16.20;54.84
48517;BME280;34310;51.904;4.256;2023-03-02T13:08:07;102489.19;;;16.21;54.72
48517;BME280;34310;51.904;4.256;2023-03-02T13:10:40;102477.09;;;16.22;54.64
48517;BME280;34310;51.904;4.256;2023-03-02T13:13:37;102478.09;;;16.24;54.54
48517;BME280;34310;51.904;4.256;2023-03-02T13:16:23;102467.66;;;16.24;54.52
48517;BME280;34310;51.904;4.256;2023-03-02T13:18:55;102464.28;;;16.25;54.51
48517;BME280;34310;51.904;4.256;2023-03-02T13:21:32;102463.47;;;16.26;54.65
48517;BME280;34310;51.904;4.256;2023-03-02T13:24:01;102460.06;;;16.27;54.60
48517;BME280;34310;51.904;4.256;2023-03-02T13:26:33;102459.38;;;16.29;54.66
48517;BME280;34310;51.904;4.256;2023-03-02T13:29:05;102462.00;;;16.29;54.43
48517;BME280;34310;51.904;4.256;2023-03-02T13:31:34;102449.06;;;16.31;54.58
48517;BME280;34310;51.904;4.256;2023-03-02T13:34:01;102443.88;;;16.31;54.63
48517;BME280;34310;51.904;4.256;2023-03-02T13:36:36;102443.19;;;16.33;54.38
48517;BME280;34310;51.904;4.256;2023-03-02T13:39:06;102450.19;;;16.34;54.40
48517;BME280;34310;51.904;4.256;2023-03-02T13:42:01;102438.06;;;16.35;54.47
48517;BME280;34310;51.904;4.256;2023-03-02T13:44:33;102444.19;;;16.35;54.46
48517;BME280;34310;51.904;4.256;2023-03-02T13:47:01;102445.22;;;16.37;54.49
48517;BME280;34310;51.904;4.256;2023-03-02T13:49:31;102439.09;;;16.37;54.38
48517;BME280;34310;51.904;4.256;2023-03-02T13:52:20;102434.00;;;16.38;54.57
48517;BME280;34310;51.904;4.256;2023-03-02T13:54:48;102442.81;;;16.40;54.51